Wirtz, Virginia
Current Conditions -  °F | °C
As of 1:54 PM on Thursday 23 Oct 2014 (Local Time) from KROA Reporting Station
Few Clouds Few Clouds  
Wind Chill: 61°   Ceiling: Unl
Heat Index: 61°   Visibility: 10mi
Dew Point: 40°   Wind: 16mph
Humidity: 46%   Direction: 300°WNW
Pressure: 30.04"   Gusts: NA
Location:  37.06°N, 79.7°W
Report Text: KROA 231754Z 30014KT 10SM FEW040 16/04 A3004 RMK AO2 SLP171 60000 T01610044 10161 20089 58016
Loading
Personal Weather Stations






























Interactive Weather Map
Tropical Storm Tracking
New forecast layout! Learn more

10-Day Weather Forecast

Advertisements
Track Severe Weather on mobile